OMAL/AAN METAR and TAF weather

Enter ICAO airport designator
Station Type Date Time Source
OMAL METAR 2019/12/16 06:00 UTC NOAA

OMAL 160600Z 18010KT 9000 NSC 24/18 Q1019 NOSIG


Station Type Date Time Source
OMAL Decoded METAR 2019/12/16 06:00 UTC NOAA

Al Ain International Airport, United Arab Emirates (OMAL) 24-16N 055-36E 262M
Dec 16, 2019 - 01:00 AM EST / 2019.12.16 0600 UTC
Wind: from the S (180 degrees) at 12 MPH (10 KT):0
Visibility: 5 mile(s):0
Temperature: 75 F (24 C)
Dew Point: 64 F (18 C)
Relative Humidity: 69%
Pressure (altimeter): 30.09 in. Hg (1019 hPa)
ob: OMAL 160600Z 18010KT 9000 NSC 24/18 Q1019 NOSIG
cycle: 6

Station Type Date Time Source
OMAL TAF 2019/12/16 06:03 UTC NOAA

TAF OMAL 160500Z 1606/1712 17010KT 8000 NSC PROB30
TEMPO 1612/1616 VRB15G25KT 4000 SHRA FEW045TCU PROB30
TEMPO 1703/1708 17015G25KT 4000 BLDU

Example: see airport list